This is the latest recevied weather packets stored in our database for station/object F6BIJ-13. If no packets are shown the sender has not sent any weather packets the latest 10 day(s).
| Time | Temp. | Humidity | Pressure | Rain* | Wind** | Luminosity | Snow |
|---|---|---|---|---|---|---|---|
| 1788328477 | 15° C | 90% | 1022 hPa | 0 mm | - | - | - |
| 1788328117 | 15° C | 90% | 1022 hPa | 0 mm | - | - | - |
| 1788327756 | 14.44° C | 90% | 1022 hPa | 0 mm | - | - | - |
| 1788327396 | 14.44° C | 90% | 1022 hPa | 0 mm | - | - | - |
| 1788327036 | 15° C | 90% | 1022 hPa | 0 mm | - | - | - |
| 1788326316 | 14.44° C | 89% | 1022 hPa | 0 mm | - | - | - |
| 1788325956 | 14.44° C | 88% | 1022 hPa | 0 mm | - | - | - |
| 1788325596 | 14.44° C | 88% | 1022 hPa | 0 mm | - | - | - |
| 1788324877 | 14.44° C | 88% | 1021 hPa | 0 mm | - | - | - |
| 1788323796 | 13.89° C | 88% | 1021 hPa | 0 mm | - | - | - |
| 1788323077 | 14.44° C | 89% | 1021 hPa | 0 mm | - | - | - |
| 1788321277 | 13.89° C | 89% | 1021 hPa | 0 mm | - | - | - |
| 1788300757 | 16.67° C | 79% | 1021 hPa | 0 mm | - | - | - |
| 1788300037 | 17.22° C | 78% | 1021 hPa | 0 mm | - | - | - |
| 1788299676 | 17.78° C | 78% | 1021 hPa | 0 mm | - | - | - |
| 1788299316 | 17.78° C | 77% | 1021 hPa | 0 mm | - | - | - |
| 1788297876 | 17.78° C | 76% | 1020 hPa | 0 mm | - | - | - |
| 1788297516 | 17.78° C | 75% | 1020 hPa | 0 mm | - | - | - |
| 1788297156 | 18.33° C | 74% | 1020 hPa | 0 mm | - | - | - |
| 1788296797 | 18.33° C | 73% | 1020 hPa | 0 mm | - | - | - |
| 1788296437 | 17.78° C | 75% | 1020 hPa | 0 mm | - | - | - |
| 1788295717 | 17.78° C | 75% | 1020 hPa | 0 mm | - | - | - |
| 1788294636 | 18.33° C | 73% | 1020 hPa | 0 mm | - | - | - |
| 1788294277 | 18.33° C | 74% | 1020 hPa | 0 mm | - | - | - |
| 1788293917 | 18.33° C | 72% | 1020 hPa | 0 mm | - | - | - |
* Rain latest 24 hours (hover to see other rain measurements)
** Current wind speed in m/s (hover to see current wind gust speed)